In Rescue
 
Open Full Screen Window  High Contrast Mode
Wind Gusting 00 knots
07
July 14, 2020 12:30 AM EDT
Weather Information
Wind Direction
  180 °
Wind Speed
  07 kt (8 mph)
Wind Gust
  00 kt (0 mph)
Altimeter
29.96 in
Visibility
10 SM
Temperature
18° C
64° F
Dewpoint
14° C
57° F
Humidity
78%
1hr Rain Fall
00.00 in.
24hr Rain Fall
00.10 in.
Sky Condition
Clear
VFR

METAR KSAW 140430Z AUTO 18007KT 10SM CLR 18/14 A2996 RMK AO2 T01840135

FAA Disclaimer: The data displayed is for advisory purposes only and is not to be used for flight planning or operations.